アトランタ の空港の天気 - METARとTAF

ハーツフィールド・ジャクソン・アトランタ国際空港 ( KATL / ATL ) - アメリカ ジョージア州アトランタ
飛行場実況気象(Metar)
観測時間07/28 22:52 EDT (07/29 02:52 UTC)
風向・風速静穏 0m/s
視程10km以上
天気現象
少しの雲 雲底高度 1220m
全天の4割程度の雲 雲底高度 7620m
気温27.2℃
湿度82%
気圧1016.3hPa
METARKATL 290252Z 00000KT 10SM FEW040 SCT250 27/24 A3005 RMK AO2 RAE17 SLP163 P0000 60003 T02720239 52018
過去の天気等 Google飛行場航空写真 Wunderground天気予報

過去48時間のMETAR

飛行場予報(TAF)
発表時間: 7/28 23:45 EDT (7/29 03:45 UTC)
予報対象時間: 29日0時 EDT ~ 30日2時 EDT
風向・風速不定 2m/s
視程10km以上
少しの雲 雲底高度 1220m
少しの雲 雲底高度 7620m
29日2時 EDT から
風向・風速不定 2m/s
視程10km以上
少しの雲 雲底高度 7620m
29日11時 EDT から
風向・風速西北西 3m/s
視程10km以上
少しの雲 雲底高度 1830m
29日20時 EDT から
風向・風速西 2m/s
視程10km以上
なし
KATL 290345Z 2904/3006 VRB03KT P6SM FEW040 FEW250
FM290600 VRB03KT P6SM FEW250
FM291500 29005KT P6SM FEW060
FM300000 27003KT P6SM SKC